Time;durP1;ratioP1;P1;durP2;ratioP2;P2;SDS_P1;SDS_P2;PMS_P1;PMS_P2;Temp;Humidity;BMP_temperature;BMP_pressure;BME280_temperature;BME280_humidity;BME280_pressure;Samples;Min_cycle;Max_cycle;Signal;HPM_P1;HPM_P2
2021/04/18 00:01:46;;;;;;;15.23;8.67;;;6.00;99.90;;;;;;4969868;28;20054;-69
2021/04/18 00:04:14;;;;;;;15.70;9.20;;;6.00;99.90;;;;;;4971392;28;20054;-70
2021/04/18 00:06:42;;;;;;;17.27;9.87;;;6.00;99.90;;;;;;4967278;28;20058;-69
2021/04/18 00:09:11;;;;;;;20.03;10.67;;;5.90;99.90;;;;;;4969698;28;20058;-69
2021/04/18 00:11:38;;;;;;;17.93;9.23;;;5.90;99.90;;;;;;4967653;28;20104;-69
2021/04/18 00:14:06;;;;;;;18.03;9.93;;;6.00;99.90;;;;;;4969950;28;20510;-69
2021/04/18 00:16:33;;;;;;;18.93;10.40;;;5.90;99.90;;;;;;4974155;28;20050;-69
2021/04/18 00:19:00;;;;;;;25.90;12.13;;;5.90;99.90;;;;;;4975461;28;20469;-70
2021/04/18 00:21:28;;;;;;;20.50;9.60;;;5.90;99.90;;;;;;4977085;28;20051;-69
2021/04/18 00:23:54;;;;;;;16.33;9.20;;;5.90;99.90;;;;;;4975908;28;20058;-69
2021/04/18 00:26:21;;;;;;;16.00;9.87;;;5.90;99.90;;;;;;4977801;28;20129;-69
2021/04/18 00:28:48;;;;;;;17.67;10.13;;;5.90;99.90;;;;;;4976582;28;20065;-69
2021/04/18 00:31:15;;;;;;;19.17;10.40;;;5.90;99.90;;;;;;4976688;28;20050;-70
2021/04/18 00:33:41;;;;;;;15.47;10.07;;;6.00;99.90;;;;;;4976538;28;20152;-69
2021/04/18 00:36:08;;;;;;;17.67;10.03;;;5.90;99.90;;;;;;4982918;28;20058;-69
2021/04/18 00:38:36;;;;;;;17.20;10.37;;;6.00;99.90;;;;;;4982561;28;20057;-69
2021/04/18 00:41:04;;;;;;;16.67;10.23;;;5.90;99.90;;;;;;4983241;28;20108;-69
2021/04/18 00:43:31;;;;;;;20.70;11.30;;;5.90;99.90;;;;;;4982607;28;20096;-69
2021/04/18 00:45:58;;;;;;;16.37;10.20;;;6.00;99.90;;;;;;4982954;28;20447;-69
2021/04/18 00:48:25;;;;;;;19.53;11.50;;;5.90;99.90;;;;;;4983586;28;20051;-69
2021/04/18 00:50:52;;;;;;;16.60;10.10;;;5.80;99.90;;;;;;4985177;28;20058;-69
2021/04/18 00:53:18;;;;;;;19.03;10.50;;;5.80;99.90;;;;;;4984857;28;20046;-70
2021/04/18 00:55:46;;;;;;;16.90;10.57;;;5.90;99.90;;;;;;5006714;28;20105;-70
2021/04/18 00:58:13;;;;;;;18.93;10.33;;;5.90;99.90;;;;;;5007118;28;20054;-70
2021/04/18 01:00:40;;;;;;;17.13;10.53;;;5.90;99.90;;;;;;5005339;28;20056;-69
2021/04/18 01:03:08;;;;;;;21.23;10.90;;;5.90;99.90;;;;;;5007152;28;20073;-70
2021/04/18 01:05:35;;;;;;;20.37;10.57;;;5.80;99.90;;;;;;5005529;28;20088;-69
2021/04/18 01:08:03;;;;;;;20.23;10.90;;;5.90;99.90;;;;;;5004858;28;20058;-69
2021/04/18 01:10:30;;;;;;;19.57;10.97;;;5.80;99.90;;;;;;4998138;28;20483;-69
2021/04/18 01:12:58;;;;;;;17.53;11.17;;;5.80;99.90;;;;;;4980727;28;20061;-69
2021/04/18 01:15:24;;;;;;;23.70;11.27;;;5.80;99.90;;;;;;4980162;28;20434;-69
2021/04/18 01:17:51;;;;;;;22.70;12.87;;;5.80;99.90;;;;;;4978698;28;20058;-69
2021/04/18 01:20:21;;;;;;;16.33;11.20;;;5.80;99.90;;;;;;4981522;28;20065;-69
2021/04/18 01:22:49;;;;;;;18.53;11.63;;;5.80;99.90;;;;;;4980754;28;20050;-69
2021/04/18 01:25:16;;;;;;;19.07;11.00;;;5.80;99.90;;;;;;4981578;28;20054;-69
2021/04/18 01:27:45;;;;;;;20.50;10.47;;;5.70;99.90;;;;;;4980853;28;20054;-69
2021/04/18 01:30:15;;;;;;;19.20;12.13;;;5.70;99.90;;;;;;4980217;28;20650;-69
2021/04/18 01:32:45;;;;;;;16.30;10.37;;;5.70;99.90;;;;;;4979229;28;20057;-69
2021/04/18 01:35:13;;;;;;;17.90;11.17;;;5.70;99.90;;;;;;4980541;28;20431;-69
2021/04/18 01:37:40;;;;;;;20.07;11.70;;;5.80;99.90;;;;;;4980153;28;20062;-69
2021/04/18 01:40:12;;;;;;;21.73;11.57;;;5.80;99.90;;;;;;4981230;28;20062;-69
2021/04/18 01:42:39;;;;;;;19.97;12.63;;;5.70;99.90;;;;;;4979681;28;20062;-69
2021/04/18 01:45:07;;;;;;;22.60;11.53;;;5.70;99.90;;;;;;4980133;28;20057;-69
2021/04/18 01:47:33;;;;;;;23.87;11.60;;;5.80;99.90;;;;;;4980311;28;20058;-68
2021/04/18 01:50:00;;;;;;;20.47;12.27;;;5.90;99.90;;;;;;4981018;28;21116;-69
2021/04/18 01:52:28;;;;;;;20.40;12.83;;;5.80;99.90;;;;;;4981225;28;20047;-69
2021/04/18 01:54:54;;;;;;;23.07;12.43;;;5.80;99.90;;;;;;4980275;28;20095;-69
2021/04/18 01:57:22;;;;;;;20.60;12.93;;;5.70;99.90;;;;;;4979615;28;20050;-68
2021/04/18 01:59:49;;;;;;;20.00;12.20;;;5.80;99.90;;;;;;4979406;28;20062;-69
2021/04/18 02:02:15;;;;;;;21.03;12.07;;;5.80;99.90;;;;;;4978989;28;20065;-69
2021/04/18 02:04:42;;;;;;;20.43;11.63;;;5.70;99.90;;;;;;4977131;28;20120;-69
2021/04/18 02:07:09;;;;;;;20.03;11.53;;;5.80;99.90;;;;;;4977061;28;20104;-69
2021/04/18 02:09:37;;;;;;;16.50;10.43;;;5.80;99.90;;;;;;4979771;28;20109;-69
2021/04/18 02:12:07;;;;;;;14.80;10.03;;;5.80;99.90;;;;;;4979322;28;20502;-69
2021/04/18 02:14:35;;;;;;;15.67;9.73;;;5.80;99.90;;;;;;4974517;28;20624;-69
2021/04/18 02:17:03;;;;;;;18.10;9.87;;;5.80;99.90;;;;;;4967742;28;20069;-69
2021/04/18 02:19:29;;;;;;;17.03;10.00;;;5.80;99.90;;;;;;4982276;28;20070;-69
2021/04/18 02:21:56;;;;;;;17.43;10.13;;;5.80;99.90;;;;;;4982566;28;20094;-69
2021/04/18 02:24:23;;;;;;;17.00;9.73;;;5.80;99.90;;;;;;4982045;28;20061;-69
2021/04/18 02:26:51;;;;;;;15.90;9.20;;;5.80;99.90;;;;;;4978024;28;20061;-69
2021/04/18 02:29:17;;;;;;;13.63;8.80;;;5.80;99.90;;;;;;4981986;28;20054;-69
2021/04/18 02:31:45;;;;;;;16.67;9.83;;;5.90;99.90;;;;;;4981943;28;20212;-69
2021/04/18 02:34:12;;;;;;;16.60;9.53;;;5.80;99.90;;;;;;4982312;28;20058;-69
2021/04/18 02:36:39;;;;;;;21.00;10.70;;;5.80;99.90;;;;;;4981580;28;20065;-69
2021/04/18 02:39:07;;;;;;;17.17;9.40;;;5.80;99.90;;;;;;4982067;28;20061;-69
2021/04/18 02:41:33;;;;;;;16.63;9.77;;;5.80;99.90;;;;;;4982440;28;20055;-69
2021/04/18 02:44:01;;;;;;;16.13;10.40;;;5.80;99.90;;;;;;4982467;28;20050;-69
2021/04/18 02:46:27;;;;;;;17.97;10.30;;;5.80;99.90;;;;;;4982907;28;20161;-69
2021/04/18 02:48:58;;;;;;;16.73;9.93;;;5.80;99.90;;;;;;4982961;28;20113;-69
2021/04/18 02:51:25;;;;;;;18.40;11.30;;;5.80;99.90;;;;;;4983489;28;20053;-69
2021/04/18 02:53:52;;;;;;;17.43;10.43;;;5.80;99.90;;;;;;4982795;28;20135;-69
2021/04/18 02:56:18;;;;;;;18.03;10.43;;;5.80;99.90;;;;;;4983322;28;20619;-69
2021/04/18 02:58:45;;;;;;;19.67;10.47;;;5.80;99.90;;;;;;4982865;28;20057;-69
2021/04/18 03:01:12;;;;;;;18.57;10.93;;;5.80;99.90;;;;;;4983112;28;20093;-69
2021/04/18 03:03:38;;;;;;;20.00;10.77;;;5.80;99.90;;;;;;4982587;28;20058;-69
2021/04/18 03:06:06;;;;;;;19.13;11.33;;;5.80;99.90;;;;;;4982893;28;20058;-69
2021/04/18 03:08:33;;;;;;;16.90;10.93;;;5.80;99.90;;;;;;4981754;28;20128;-69
2021/04/18 03:11:00;;;;;;;15.47;10.30;;;5.80;99.90;;;;;;4982866;28;20491;-69
2021/04/18 03:13:26;;;;;;;19.73;11.03;;;5.80;99.90;;;;;;4981987;28;20437;-69
2021/04/18 03:15:53;;;;;;;16.80;10.50;;;5.80;99.90;;;;;;4981528;28;20511;-69
2021/04/18 03:18:20;;;;;;;19.53;11.57;;;5.80;99.90;;;;;;4980912;28;20050;-69
2021/04/18 03:20:46;;;;;;;18.27;11.30;;;5.80;99.90;;;;;;4981373;28;20080;-69
2021/04/18 03:23:14;;;;;;;20.43;11.10;;;5.80;99.90;;;;;;4982140;28;20112;-69
2021/04/18 03:25:40;;;;;;;20.33;11.57;;;5.80;99.90;;;;;;4980209;28;20054;-69
2021/04/18 03:28:07;;;;;;;18.53;10.63;;;5.80;99.90;;;;;;4980014;28;20598;-69
2021/04/18 03:30:35;;;;;;;19.77;11.60;;;5.80;99.90;;;;;;4980105;28;20057;-69
2021/04/18 03:33:02;;;;;;;21.60;10.73;;;5.80;99.90;;;;;;4980761;28;20055;-69
2021/04/18 03:35:29;;;;;;;20.73;12.13;;;5.80;99.90;;;;;;4980633;28;20058;-69
2021/04/18 03:37:55;;;;;;;19.27;11.63;;;5.80;99.90;;;;;;4980006;28;20060;-69
2021/04/18 03:40:23;;;;;;;18.53;11.40;;;5.80;99.90;;;;;;4980890;28;20503;-69
2021/04/18 03:42:50;;;;;;;20.47;11.10;;;5.80;99.90;;;;;;4979867;28;20466;-68
2021/04/18 03:45:17;;;;;;;19.63;11.20;;;5.80;99.90;;;;;;4981009;28;20519;-68
2021/04/18 03:47:44;;;;;;;19.67;11.60;;;5.80;99.90;;;;;;4980481;28;20054;-69
2021/04/18 03:50:12;;;;;;;16.93;10.10;;;5.70;99.90;;;;;;4981429;28;20062;-68
2021/04/18 03:52:39;;;;;;;19.73;10.53;;;5.70;99.90;;;;;;4980450;28;20058;-69
2021/04/18 03:55:07;;;;;;;20.23;12.10;;;5.80;99.90;;;;;;4979528;28;20058;-69
2021/04/18 03:57:34;;;;;;;20.40;11.40;;;5.80;99.90;;;;;;4980158;28;20063;-69
2021/04/18 04:00:01;;;;;;;18.73;11.40;;;5.80;99.90;;;;;;4982056;28;20106;-69
2021/04/18 04:02:28;;;;;;;19.13;11.57;;;5.80;99.90;;;;;;4980885;28;20058;-69
2021/04/18 04:04:55;;;;;;;21.90;12.07;;;5.80;99.90;;;;;;4981323;28;20058;-69
2021/04/18 04:07:21;;;;;;;23.43;11.70;;;5.80;99.90;;;;;;4980908;28;20163;-69
2021/04/18 04:09:48;;;;;;;19.43;11.80;;;5.70;99.90;;;;;;4980641;28;20120;-68
2021/04/18 04:12:15;;;;;;;19.27;11.93;;;5.70;99.90;;;;;;4980407;28;20487;-69
2021/04/18 04:14:42;;;;;;;21.90;11.70;;;5.70;99.90;;;;;;4980748;28;20066;-69
2021/04/18 04:17:09;;;;;;;23.97;11.97;;;5.60;99.90;;;;;;4980618;28;20196;-69
2021/04/18 04:19:36;;;;;;;19.33;12.23;;;5.70;99.90;;;;;;4980819;28;20054;-69
2021/04/18 04:22:03;;;;;;;17.60;11.47;;;5.70;99.90;;;;;;4981478;28;20058;-68
2021/04/18 04:24:30;;;;;;;19.70;11.87;;;5.70;99.90;;;;;;4980940;28;20109;-69
2021/04/18 04:26:57;;;;;;;22.13;12.27;;;5.80;99.90;;;;;;4979716;28;20054;-69
2021/04/18 04:29:24;;;;;;;22.53;12.83;;;5.80;99.90;;;;;;4979882;28;20058;-69
2021/04/18 04:31:51;;;;;;;21.23;12.70;;;5.80;99.90;;;;;;4979872;28;20450;-69
2021/04/18 04:34:18;;;;;;;21.73;13.53;;;5.70;99.90;;;;;;4980687;28;20054;-68
2021/04/18 04:36:45;;;;;;;19.53;13.17;;;6.00;99.90;;;;;;4978412;28;20069;-69
2021/04/18 04:39:12;;;;;;;21.17;13.43;;;5.80;99.90;;;;;;4979235;28;20138;-69
2021/04/18 04:41:38;;;;;;;21.17;13.40;;;5.80;99.90;;;;;;4979771;28;20050;-68
2021/04/18 04:44:05;;;;;;;24.03;14.57;;;5.80;99.90;;;;;;4978433;28;20246;-69
2021/04/18 04:46:32;;;;;;;22.10;12.60;;;5.80;99.90;;;;;;4979128;28;20058;-69
2021/04/18 04:49:00;;;;;;;21.97;13.73;;;5.80;99.90;;;;;;4978520;28;20065;-69
2021/04/18 04:51:26;;;;;;;24.43;13.50;;;5.80;99.90;;;;;;4979606;28;20070;-68
2021/04/18 04:53:53;;;;;;;25.97;15.40;;;5.80;99.90;;;;;;4979171;28;20050;-69
2021/04/18 04:56:20;;;;;;;24.17;14.73;;;5.90;99.90;;;;;;4979642;28;20069;-69
2021/04/18 04:58:46;;;;;;;22.90;14.77;;;5.90;99.90;;;;;;4978917;28;20061;-68
2021/04/18 05:01:13;;;;;;;22.00;13.17;;;5.90;99.90;;;;;;4979864;28;20073;-68
2021/04/18 05:03:40;;;;;;;24.00;13.53;;;5.90;99.90;;;;;;4979213;28;20046;-68
2021/04/18 05:06:07;;;;;;;18.40;12.03;;;5.90;99.90;;;;;;4979016;28;20054;-69
2021/04/18 05:08:34;;;;;;;24.00;14.07;;;5.90;99.90;;;;;;4978730;28;20837;-68
2021/04/18 05:11:00;;;;;;;23.70;13.40;;;5.90;99.90;;;;;;4980199;28;20054;-69
2021/04/18 05:13:27;;;;;;;21.67;12.63;;;5.90;99.90;;;;;;4978990;28;20065;-69
2021/04/18 05:15:54;;;;;;;19.33;11.67;;;6.00;99.90;;;;;;4976170;28;20050;-68
2021/04/18 05:18:20;;;;;;;19.77;12.47;;;5.90;99.90;;;;;;4978418;28;20483;-69
2021/04/18 05:20:47;;;;;;;18.70;11.60;;;6.00;99.90;;;;;;4978200;28;20660;-69
2021/04/18 05:23:15;;;;;;;22.17;12.20;;;6.00;99.90;;;;;;4978368;28;20065;-68
2021/04/18 05:25:41;;;;;;;19.57;12.43;;;6.00;99.90;;;;;;4977652;28;20058;-69
2021/04/18 05:28:08;;;;;;;19.70;11.90;;;6.00;99.90;;;;;;4977729;28;20807;-68
2021/04/18 05:30:35;;;;;;;20.60;11.90;;;6.10;99.90;;;;;;4977741;28;20399;-68
2021/04/18 05:33:02;;;;;;;17.97;11.23;;;6.10;99.90;;;;;;4978133;28;20100;-69
2021/04/18 05:35:28;;;;;;;20.13;11.90;;;6.10;99.90;;;;;;4977338;28;20054;-69
2021/04/18 05:37:55;;;;;;;21.00;12.37;;;6.10;99.90;;;;;;4977100;28;20058;-69
2021/04/18 05:40:23;;;;;;;21.07;12.13;;;6.10;99.90;;;;;;4977833;28;20518;-68
2021/04/18 05:42:49;;;;;;;21.27;11.07;;;6.10;99.90;;;;;;4976893;28;20065;-69
2021/04/18 05:45:16;;;;;;;21.60;12.33;;;6.20;99.90;;;;;;4977144;28;20050;-69
2021/04/18 05:47:43;;;;;;;20.40;10.70;;;6.30;99.90;;;;;;4977174;28;20057;-69
2021/04/18 05:50:10;;;;;;;19.67;12.33;;;6.20;99.90;;;;;;4977123;28;20499;-69
2021/04/18 05:52:38;;;;;;;19.73;11.50;;;6.30;99.90;;;;;;4977260;28;20050;-69
2021/04/18 05:55:06;;;;;;;20.87;11.30;;;6.30;99.90;;;;;;4976281;28;20062;-69
2021/04/18 05:57:34;;;;;;;17.93;10.47;;;6.30;99.90;;;;;;4977245;28;20621;-68
2021/04/18 06:00:01;;;;;;;20.90;10.87;;;6.40;99.90;;;;;;4977357;28;20054;-68
2021/04/18 06:02:27;;;;;;;17.37;10.57;;;6.50;99.90;;;;;;4976552;28;20097;-69
2021/04/18 06:04:54;;;;;;;22.47;12.03;;;6.50;99.90;;;;;;4976882;28;20942;-69
2021/04/18 06:07:21;;;;;;;18.97;11.13;;;6.50;99.90;;;;;;4976075;28;20081;-69
2021/04/18 06:09:47;;;;;;;19.43;11.57;;;6.60;99.90;;;;;;4977058;28;20063;-69
2021/04/18 06:12:14;;;;;;;20.50;11.07;;;6.70;99.90;;;;;;4977429;28;20085;-69
2021/04/18 06:14:42;;;;;;;19.20;11.10;;;6.70;99.90;;;;;;4952156;28;732686;-69
2021/04/18 06:17:08;;;;;;;20.50;10.03;;;6.80;99.90;;;;;;4976985;28;20053;-68
2021/04/18 06:19:35;;;;;;;17.53;11.43;;;6.70;99.90;;;;;;4978154;28;20550;-69
2021/04/18 06:22:02;;;;;;;21.13;11.97;;;6.80;99.90;;;;;;4977388;28;20521;-69
2021/04/18 06:24:28;;;;;;;16.50;9.73;;;6.90;99.90;;;;;;4977834;28;20051;-69
2021/04/18 06:26:55;;;;;;;16.20;10.73;;;6.80;99.90;;;;;;4977730;28;20062;-69
2021/04/18 06:29:22;;;;;;;20.85;10.60;;;7.00;99.90;;;;;;4976867;28;20058;-69
2021/04/18 06:31:49;;;;;;;16.75;10.85;;;7.10;99.90;;;;;;4976527;28;20100;-69
2021/04/18 06:34:21;;;;;;;18.85;10.30;;;7.00;99.90;;;;;;4978765;28;20522;-69
2021/04/18 06:36:48;;;;;;;20.73;11.18;;;7.10;99.90;;;;;;4976530;28;20058;-68
2021/04/18 06:39:15;;;;;;;18.55;11.77;;;7.20;99.90;;;;;;4977930;28;20047;-69
2021/04/18 06:41:49;;;;;;;17.33;10.43;;;7.20;99.90;;;;;;4977605;28;20054;-68
2021/04/18 06:44:16;;;;;;;18.20;10.35;;;7.20;99.90;;;;;;4978191;28;20058;-69
2021/04/18 06:46:43;;;;;;;18.23;9.98;;;7.20;99.90;;;;;;4977847;28;20414;-68
2021/04/18 06:49:14;;;;;;;18.08;10.93;;;7.30;99.90;;;;;;4975139;28;20065;-69
2021/04/18 06:51:41;;;;;;;18.63;10.95;;;7.40;99.90;;;;;;4978018;28;20526;-68
2021/04/18 06:54:08;;;;;;;18.58;11.88;;;7.50;99.90;;;;;;4977692;28;20053;-68
2021/04/18 06:56:34;;;;;;;20.10;11.80;;;7.60;99.90;;;;;;4978384;28;20061;-69
2021/04/18 06:59:03;;;;;;;18.48;10.52;;;7.60;99.90;;;;;;4978082;28;20046;-68
2021/04/18 07:01:30;;;;;;;19.95;10.73;;;7.70;99.90;;;;;;4979309;28;20054;-68
2021/04/18 07:04:13;;;;;;;16.67;10.80;;;7.80;99.90;;;;;;4981280;28;20062;-68
2021/04/18 07:06:41;;;;;;;19.60;11.23;;;7.80;99.90;;;;;;4981845;28;20093;-68
2021/04/18 07:09:08;;;;;;;15.73;10.23;;;7.90;99.90;;;;;;4981477;28;20141;-68
2021/04/18 07:11:46;;;;;;;18.55;11.38;;;7.90;99.90;;;;;;4982225;28;20057;-69
2021/04/18 07:14:28;;;;;;;16.85;10.77;;;8.00;99.90;;;;;;4981625;28;20049;-69
2021/04/18 07:17:06;;;;;;;20.42;10.77;;;8.00;99.90;;;;;;4975594;28;20058;-69
2021/04/18 07:19:35;;;;;;;18.00;10.95;;;8.10;99.90;;;;;;4966223;28;20054;-69
2021/04/18 07:22:03;;;;;;;16.90;10.45;;;8.20;99.90;;;;;;4965995;28;20081;-69
2021/04/18 07:24:31;;;;;;;17.88;10.60;;;8.20;99.90;;;;;;4961362;28;20073;-69
2021/04/18 07:27:01;;;;;;;16.17;10.77;;;8.30;99.90;;;;;;4965160;28;20054;-69
2021/04/18 07:29:29;;;;;;;17.33;10.95;;;8.10;99.90;;;;;;4965170;28;20050;-69
2021/04/18 07:31:58;;;;;;;18.17;10.43;;;8.40;99.90;;;;;;4966443;28;20133;-69
2021/04/18 07:34:26;;;;;;;18.85;11.27;;;8.50;99.90;;;;;;4966484;28;20042;-69
2021/04/18 07:37:08;;;;;;;19.13;10.77;;;8.50;99.90;;;;;;4966053;28;20113;-69
2021/04/18 07:39:53;;;;;;;18.17;10.75;;;8.80;99.90;;;;;;4966391;28;20708;-69
2021/04/18 07:42:41;;;;;;;16.45;10.65;;;9.00;99.90;;;;;;4962883;28;20069;-69
2021/04/18 07:45:22;;;;;;;17.50;10.98;;;9.00;99.90;;;;;;4960134;28;20061;-69
2021/04/18 07:47:48;;;;;;;17.40;10.32;;;9.10;99.90;;;;;;4967748;28;20104;-69
2021/04/18 07:50:18;;;;;;;17.00;10.68;;;9.20;99.90;;;;;;4969920;28;20057;-68
2021/04/18 07:52:47;;;;;;;16.63;10.23;;;9.20;99.90;;;;;;4968965;28;20057;-68
2021/04/18 07:55:16;;;;;;;17.25;11.15;;;9.30;99.90;;;;;;4967424;28;20050;-68
2021/04/18 07:57:43;;;;;;;15.88;9.68;;;9.20;99.90;;;;;;4968261;28;20801;-69
2021/04/18 08:00:12;;;;;;;18.25;11.02;;;9.30;99.90;;;;;;4969955;28;20466;-68
2021/04/18 08:02:40;;;;;;;15.02;9.27;;;9.30;99.90;;;;;;4970507;28;20061;-69
2021/04/18 08:05:09;;;;;;;15.38;9.75;;;9.20;99.90;;;;;;4970907;28;20054;-69
2021/04/18 08:07:59;;;;;;;20.20;10.63;;;9.20;99.90;;;;;;4969250;28;20061;-69
2021/04/18 08:10:27;;;;;;;17.83;10.25;;;9.20;99.90;;;;;;4970736;28;21765;-70
2021/04/18 08:13:09;;;;;;;19.58;10.80;;;9.20;99.90;;;;;;4969919;28;20423;-69
2021/04/18 08:15:38;;;;;;;18.00;9.70;;;9.10;99.90;;;;;;4969664;28;20064;-69
2021/04/18 08:18:08;;;;;;;20.27;12.13;;;9.00;99.90;;;;;;4970132;28;20116;-68
2021/04/18 08:20:37;;;;;;;17.73;10.52;;;8.90;99.90;;;;;;4970936;28;20411;-68
2021/04/18 08:23:07;;;;;;;22.20;11.20;;;8.90;99.90;;;;;;4969646;28;20090;-67
2021/04/18 08:25:36;;;;;;;23.13;12.95;;;9.00;99.90;;;;;;4970040;28;20527;-67
2021/04/18 08:28:10;;;;;;;18.58;11.55;;;9.00;99.90;;;;;;4968394;28;20133;-67
2021/04/18 08:31:04;;;;;;;22.73;11.57;;;9.00;99.90;;;;;;4968902;28;20140;-67
2021/04/18 08:33:48;;;;;;;20.35;13.18;;;9.10;99.90;;;;;;4969422;28;21159;-67
2021/04/18 08:36:17;;;;;;;25.00;12.20;;;9.10;99.90;;;;;;4971050;28;20167;-67
2021/04/18 08:38:46;;;;;;;21.50;11.93;;;9.10;99.90;;;;;;4970332;28;20051;-67
2021/04/18 08:41:14;;;;;;;19.27;12.88;;;9.10;99.90;;;;;;4969554;28;20695;-67
2021/04/18 08:43:42;;;;;;;19.55;12.57;;;9.20;99.90;;;;;;4968554;28;20610;-67
2021/04/18 08:46:09;;;;;;;18.17;11.80;;;9.20;99.90;;;;;;4969325;28;20058;-67
2021/04/18 08:48:36;;;;;;;20.58;11.98;;;9.20;99.90;;;;;;4968103;28;20057;-67
2021/04/18 08:51:05;;;;;;;20.65;11.38;;;9.10;99.90;;;;;;4969153;28;20059;-67
2021/04/18 08:56:44;;;;;;;21.88;12.23;;;9.10;99.90;;;;;;5097924;27;21831;-69
2021/04/18 08:59:11;;;;;;;26.45;13.35;;;9.20;99.90;;;;;;5073458;28;20126;-69
2021/04/18 09:01:38;;;;;;;19.52;12.02;;;9.20;99.90;;;;;;5073083;28;20047;-69
2021/04/18 09:04:10;;;;;;;21.88;12.65;;;9.30;99.90;;;;;;5070749;28;20044;-69
2021/04/18 09:06:37;;;;;;;25.15;13.05;;;9.40;99.90;;;;;;5071515;28;20538;-69
2021/04/18 09:09:06;;;;;;;23.95;12.57;;;9.40;99.90;;;;;;5074343;28;20043;-70
2021/04/18 09:11:39;;;;;;;24.00;12.60;;;9.40;99.90;;;;;;5073987;28;20051;-69
2021/04/18 09:14:06;;;;;;;18.23;11.25;;;9.50;99.90;;;;;;5074028;28;20048;-70
2021/04/18 09:16:34;;;;;;;21.88;11.68;;;9.70;99.90;;;;;;5072057;28;20408;-70
2021/04/18 09:19:21;;;;;;;18.27;11.63;;;9.70;99.90;;;;;;5071522;28;20058;-69
2021/04/18 09:21:58;;;;;;;19.25;11.20;;;9.90;99.90;;;;;;5072986;28;20089;-69
2021/04/18 09:24:25;;;;;;;;;;;10.00;99.90;;;;;;5073119;28;20056;-70
2021/04/18 09:27:01;;;;;;;19.73;11.40;;;10.10;99.90;;;;;;5072501;28;19924;-69
2021/04/18 09:29:28;;;;;;;20.38;10.95;;;10.00;99.90;;;;;;5071548;28;20052;-70
2021/04/18 09:32:00;;;;;;;20.27;11.30;;;10.00;99.90;;;;;;5074151;28;20055;-70
2021/04/18 09:34:27;;;;;;;18.55;11.07;;;10.10;99.90;;;;;;5072031;28;20049;-69
2021/04/18 09:36:55;;;;;;;23.25;11.65;;;10.00;99.90;;;;;;5072935;28;20051;-70
2021/04/18 09:39:27;;;;;;;18.15;10.90;;;9.90;99.90;;;;;;5071713;28;20458;-70
2021/04/18 09:41:54;;;;;;;18.08;11.13;;;9.90;99.90;;;;;;5069527;28;20044;-70
2021/04/18 09:44:31;;;;;;;19.42;11.68;;;10.00;99.90;;;;;;5073146;28;20060;-70
2021/04/18 09:46:59;;;;;;;;;;;10.10;99.90;;;;;;5070044;28;20102;-70
2021/04/18 09:49:27;;;;;;;18.42;11.95;;;10.20;99.90;;;;;;5072209;28;19924;-70
2021/04/18 09:51:59;;;;;;;19.92;11.85;;;10.20;99.90;;;;;;5073467;28;20121;-70
2021/04/18 09:54:34;;;;;;;20.70;11.02;;;10.30;99.90;;;;;;5070280;28;20051;-70
2021/04/18 09:57:18;;;;;;;19.58;11.82;;;10.20;99.90;;;;;;5070512;28;20388;-70
2021/04/18 10:00:01;;;;;;;21.27;11.57;;;10.40;99.90;;;;;;5073574;28;20052;-70
2021/04/18 10:02:28;;;;;;;20.73;12.65;;;10.40;99.90;;;;;;5072583;28;20047;-70
2021/04/18 10:05:08;;;;;;;28.20;13.65;;;10.50;99.90;;;;;;5072209;28;20534;-70
2021/04/18 10:07:34;;;;;;;22.38;12.50;;;10.40;99.90;;;;;;5059005;28;20294;-70
2021/04/18 10:10:01;;;;;;;19.65;11.88;;;10.60;99.90;;;;;;5057841;28;20179;-70
2021/04/18 10:12:28;;;;;;;21.10;12.50;;;10.60;99.90;;;;;;5060407;28;20052;-70
2021/04/18 10:15:08;;;;;;;25.42;14.57;;;10.80;99.90;;;;;;5056530;28;20049;-70
2021/04/18 10:17:36;;;;;;;25.27;14.65;;;10.80;99.90;;;;;;5056181;28;20063;-70
2021/04/18 10:20:04;;;;;;;21.23;13.05;;;10.80;99.90;;;;;;5045196;28;20048;-72
2021/04/18 10:22:31;;;;;;;24.42;13.48;;;10.90;99.90;;;;;;5036068;28;20078;-72
2021/04/18 10:24:58;;;;;;;27.13;14.55;;;10.90;99.90;;;;;;5047320;28;20063;-72
2021/04/18 10:27:27;;;;;;;24.88;14.10;;;11.10;99.90;;;;;;5053868;28;20504;-72
2021/04/18 10:29:54;;;;;;;33.03;14.52;;;11.20;99.90;;;;;;5052052;28;20052;-72
2021/04/18 10:32:25;;;;;;;32.17;14.57;;;11.30;99.90;;;;;;5054589;28;20059;-70
2021/04/18 10:34:53;;;;;;;28.73;14.18;;;11.40;99.90;;;;;;5052727;28;20514;-72
2021/04/18 10:37:21;;;;;;;28.33;14.30;;;11.20;99.90;;;;;;5056195;28;20469;-72
2021/04/18 10:39:47;;;;;;;24.98;14.07;;;11.40;99.90;;;;;;5056259;28;20045;-73
2021/04/18 10:42:14;;;;;;;30.38;14.65;;;11.60;99.90;;;;;;5059108;28;20048;-72
2021/04/18 10:44:41;;;;;;;30.65;15.02;;;11.80;99.90;;;;;;5057339;28;20067;-72
2021/04/18 10:47:12;;;;;;;29.48;14.82;;;12.00;99.90;;;;;;5046551;28;20398;-72
2021/04/18 10:49:40;;;;;;;28.95;14.50;;;11.90;99.90;;;;;;5056079;28;20428;-72
2021/04/18 10:52:07;;;;;;;29.67;14.63;;;12.00;99.90;;;;;;5050931;28;20057;-72
2021/04/18 10:54:34;;;;;;;40.80;16.83;;;12.40;99.90;;;;;;5053369;28;20187;-72
2021/04/18 10:57:00;;;;;;;31.40;15.07;;;13.30;99.90;;;;;;5050102;28;20133;-72
2021/04/18 10:59:27;;;;;;;28.88;14.10;;;13.80;99.90;;;;;;5049005;28;20052;-73
2021/04/18 11:01:54;;;;;;;29.88;15.13;;;13.80;99.90;;;;;;5048845;28;20397;-70
2021/04/18 11:04:21;;;;;;;29.67;14.07;;;13.70;99.90;;;;;;5048565;28;20072;-72
2021/04/18 11:06:49;;;;;;;28.40;14.02;;;13.90;99.90;;;;;;5051529;28;20144;-73
2021/04/18 11:09:16;;;;;;;27.60;14.80;;;14.30;99.90;;;;;;5052603;28;20087;-72
2021/04/18 11:11:43;;;;;;;29.15;14.07;;;14.50;99.90;;;;;;5055482;28;20044;-71
2021/04/18 11:14:10;;;;;;;28.15;14.30;;;14.70;99.90;;;;;;5055809;28;20051;-71
2021/04/18 11:16:37;;;;;;;30.77;14.77;;;14.80;99.90;;;;;;5054869;28;20048;-71
2021/04/18 11:19:04;;;;;;;30.83;15.55;;;15.00;99.90;;;;;;5053375;28;20508;-71
2021/04/18 11:21:31;;;;;;;32.72;14.52;;;15.10;99.90;;;;;;5051783;28;20110;-72
2021/04/18 11:23:58;;;;;;;27.98;15.45;;;14.60;99.90;;;;;;5055689;28;20088;-71
2021/04/18 11:26:26;;;;;;;27.75;14.27;;;13.60;99.90;;;;;;5050397;28;20052;-71
2021/04/18 11:28:56;;;;;;;32.15;15.45;;;13.80;99.90;;;;;;5054658;28;20061;-71
2021/04/18 11:31:23;;;;;;;28.38;15.80;;;14.40;99.90;;;;;;5059702;28;20057;-71
2021/04/18 11:33:50;;;;;;;31.83;15.38;;;14.90;99.90;;;;;;5052160;28;20558;-71
2021/04/18 11:36:18;;;;;;;27.55;14.38;;;15.20;99.90;;;;;;5055906;28;21221;-71
2021/04/18 11:38:46;;;;;;;28.10;15.68;;;16.50;99.90;;;;;;5055444;28;20060;-71
2021/04/18 11:41:13;;;;;;;28.10;14.68;;;16.90;99.90;;;;;;5053255;28;20053;-71
2021/04/18 11:43:40;;;;;;;26.10;14.88;;;17.80;99.90;;;;;;5041748;28;20523;-73
2021/04/18 11:46:07;;;;;;;24.83;13.52;;;18.50;99.90;;;;;;5052668;28;20080;-73
2021/04/18 11:48:35;;;;;;;26.45;14.60;;;18.30;99.90;;;;;;5051758;28;20050;-73
2021/04/18 11:51:02;;;;;;;22.70;13.55;;;18.30;99.90;;;;;;5057686;28;20497;-74
2021/04/18 11:53:29;;;;;;;22.42;14.32;;;18.30;99.90;;;;;;5055327;28;20057;-73
2021/04/18 11:55:57;;;;;;;27.10;14.70;;;17.70;99.90;;;;;;5052352;28;20052;-74
2021/04/18 11:58:25;;;;;;;26.15;14.27;;;17.70;99.90;;;;;;5054864;28;20052;-74
2021/04/18 12:00:52;;;;;;;23.90;13.23;;;17.60;99.90;;;;;;5057511;28;20169;-74
2021/04/18 12:03:19;;;;;;;23.00;14.23;;;17.80;99.90;;;;;;5056180;28;20066;-74
2021/04/18 12:05:46;;;;;;;22.55;12.75;;;17.50;99.90;;;;;;5054874;28;20467;-74
2021/04/18 12:08:16;;;;;;;21.77;11.70;;;17.50;99.90;;;;;;5046906;28;20079;-74
2021/04/18 12:10:42;;;;;;;19.05;10.95;;;16.60;99.90;;;;;;5047616;28;20106;-74
2021/04/18 12:13:09;;;;;;;21.27;11.60;;;16.90;99.90;;;;;;5038614;28;20383;-74
2021/04/18 12:15:37;;;;;;;20.17;12.27;;;16.60;99.90;;;;;;5043839;28;21056;-71
2021/04/18 12:18:04;;;;;;;17.90;12.15;;;16.40;99.90;;;;;;5045759;28;20401;-72
2021/04/18 12:20:31;;;;;;;23.85;12.18;;;16.30;99.90;;;;;;5050108;28;20063;-71
2021/04/18 12:22:57;;;;;;;21.40;12.75;;;17.00;99.90;;;;;;5050690;28;20075;-72
2021/04/18 12:25:24;;;;;;;18.30;11.20;;;17.30;99.90;;;;;;5044681;28;20056;-73
2021/04/18 12:27:50;;;;;;;20.27;12.32;;;16.80;99.90;;;;;;5046392;28;20058;-71
2021/04/18 12:30:23;;;;;;;21.55;11.48;;;16.60;99.90;;;;;;5044265;28;21542;-74
2021/04/18 12:32:57;;;;;;;24.95;13.10;;;16.70;99.90;;;;;;5044482;28;20044;-74
2021/04/18 12:35:23;;;;;;;20.88;12.35;;;16.50;99.90;;;;;;5046214;28;20538;-74
2021/04/18 12:37:51;;;;;;;19.33;11.77;;;16.80;99.90;;;;;;5054917;28;20060;-74
2021/04/18 12:40:18;;;;;;;22.63;12.35;;;17.30;99.90;;;;;;5053806;28;20065;-74
2021/04/18 12:42:45;;;;;;;18.92;11.88;;;18.10;99.90;;;;;;5052335;28;20040;-74
2021/04/18 12:45:12;;;;;;;21.20;11.98;;;17.80;99.90;;;;;;5054651;28;20047;-74